Time;durP1;ratioP1;P1;durP2;ratioP2;P2;SDS_P1;SDS_P2;PMS_P1;PMS_P2;Temp;Humidity;BMP_temperature;BMP_pressure;BME280_temperature;BME280_humidity;BME280_pressure;Samples;Min_cycle;Max_cycle;Signal;HPM_P1;HPM_P2
2022/06/27 00:01:56;;;;;;;7.07;0.32;;;;;;;17.93;64.06;100971.53;7381902;19;20566;-79
2022/06/27 00:04:22;;;;;;;6.57;0.40;;;;;;;17.91;64.62;100977.06;7384983;19;20090;-80
2022/06/27 00:06:49;;;;;;;6.43;0.40;;;;;;;17.89;64.51;100978.25;7390195;19;20014;-79
2022/06/27 00:09:16;;;;;;;6.10;0.30;;;;;;;17.88;64.70;100982.75;7391067;19;20685;-80
2022/06/27 00:11:44;;;;;;;3.58;0.30;;;;;;;17.84;64.63;100980.69;7390958;19;20077;-79
2022/06/27 00:14:11;;;;;;;4.20;0.32;;;;;;;17.82;65.23;100982.75;7389775;19;20022;-80
2022/06/27 00:16:38;;;;;;;6.72;0.40;;;;;;;17.79;65.39;100975.13;7389343;19;20496;-80
2022/06/27 00:19:15;;;;;;;5.43;0.30;;;;;;;17.77;65.28;100990.50;7387458;19;20018;-79
2022/06/27 00:21:42;;;;;;;2.65;0.30;;;;;;;17.74;65.29;100991.69;7389551;19;20018;-80
2022/06/27 00:24:09;;;;;;;5.25;0.30;;;;;;;17.67;65.65;100993.50;7390776;19;20113;-78
2022/06/27 00:26:36;;;;;;;4.25;0.50;;;;;;;17.65;65.95;100984.06;7389283;19;20757;-79
2022/06/27 00:29:06;;;;;;;4.70;0.65;;;;;;;17.63;66.76;100981.59;7390592;19;20554;-78
2022/06/27 00:31:33;;;;;;;2.97;0.25;;;;;;;17.63;66.42;100986.09;7387958;19;20138;-79
2022/06/27 00:34:00;;;;;;;2.47;0.20;;;;;;;17.64;66.17;100977.09;7390415;19;20037;-79
2022/06/27 00:36:27;;;;;;;4.10;0.20;;;;;;;17.64;66.00;100983.25;7388509;19;21506;-79
2022/06/27 00:38:54;;;;;;;6.05;0.40;;;;;;;17.62;66.15;100979.97;7389862;19;20010;-79
2022/06/27 00:41:21;;;;;;;7.30;0.40;;;;;;;17.61;66.17;100983.66;7389031;19;20021;-79
2022/06/27 00:43:48;;;;;;;2.03;0.20;;;;;;;17.61;66.27;100978.31;7387273;19;20037;-79
2022/06/27 00:46:15;;;;;;;1.58;0.47;;;;;;;17.59;67.26;100969.69;7387533;19;20006;-79
2022/06/27 00:48:42;;;;;;;4.55;0.20;;;;;;;17.57;66.63;100971.72;7387647;19;20034;-79
2022/06/27 00:51:09;;;;;;;2.47;0.20;;;;;;;17.56;66.62;100974.56;7386126;19;20788;-79
2022/06/27 00:53:37;;;;;;;4.88;0.30;;;;;;;17.56;66.76;100977.22;7389537;19;20018;-79
2022/06/27 00:56:05;;;;;;;8.15;0.25;;;;;;;17.54;67.05;100972.91;7390146;19;20066;-80
2022/06/27 00:58:33;;;;;;;2.42;0.20;;;;;;;17.53;66.78;100973.09;7390152;19;20086;-79
2022/06/27 01:01:00;;;;;;;5.25;0.30;;;;;;;17.51;67.13;100968.00;7388663;19;20122;-79
2022/06/27 01:03:28;;;;;;;5.80;0.40;;;;;;;17.53;67.40;100973.94;7385444;19;20046;-78
2022/06/27 01:05:56;;;;;;;3.25;0.20;;;;;;;17.57;67.14;100976.22;7385256;19;20139;-80
2022/06/27 01:08:27;;;;;;;6.13;0.40;;;;;;;17.56;66.96;100969.25;7390027;19;20117;-78
2022/06/27 01:10:54;;;;;;;3.05;0.30;;;;;;;17.57;66.70;100973.56;7388707;19;20025;-78
2022/06/27 01:13:22;;;;;;;5.93;0.50;;;;;;;17.53;67.16;100973.09;7389881;19;20471;-79
2022/06/27 01:15:50;;;;;;;5.82;0.40;;;;;;;17.50;67.05;100973.50;7386761;19;20497;-79
2022/06/27 01:18:18;;;;;;;5.57;0.50;;;;;;;17.51;68.99;100964.50;7387722;19;20331;-78
2022/06/27 01:20:46;;;;;;;2.08;0.20;;;;;;;17.50;67.53;100970.84;7386464;19;20014;-81
2022/06/27 01:23:13;;;;;;;2.40;0.25;;;;;;;17.49;67.39;100972.69;7387039;19;20407;-79
2022/06/27 01:25:40;;;;;;;2.45;0.20;;;;;;;17.48;67.58;100972.84;7386750;19;20078;-79
2022/06/27 01:28:09;;;;;;;5.22;0.30;;;;;;;17.45;67.73;100971.44;7387848;19;20015;-79
2022/06/27 01:30:36;;;;;;;1.73;0.10;;;;;;;17.42;67.67;100971.78;7385895;19;20022;-79
2022/06/27 01:33:03;;;;;;;3.85;0.70;;;;;;;17.41;68.51;100962.19;7387060;19;20098;-79
2022/06/27 01:35:30;;;;;;;3.88;0.25;;;;;;;17.40;68.85;100967.69;7388504;19;20018;-79
2022/06/27 01:37:57;;;;;;;4.18;0.30;;;;;;;17.39;68.00;100966.88;7387121;19;20031;-79
2022/06/27 01:40:25;;;;;;;9.18;0.65;;;;;;;17.39;68.10;100960.72;7386687;19;20010;-80
2022/06/27 01:42:53;;;;;;;4.93;0.30;;;;;;;17.38;68.18;100959.91;7388516;19;20021;-79
2022/06/27 01:45:20;;;;;;;5.47;0.20;;;;;;;17.37;68.12;100965.44;7382764;19;20011;-79
2022/06/27 01:47:47;;;;;;;4.70;0.45;;;;;;;17.36;68.61;100961.13;7378469;19;20018;-79
2022/06/27 01:50:20;;;;;;;5.28;0.43;;;;;;;17.33;68.61;100964.97;7387943;19;20015;-79
2022/06/27 01:52:49;;;;;;;2.20;0.20;;;;;;;17.37;68.73;100960.13;7391059;19;20019;-79
2022/06/27 01:55:16;;;;;;;1.33;0.20;;;;;;;17.36;68.74;100959.28;7387785;19;20379;-78
2022/06/27 01:57:46;;;;;;;6.75;0.28;;;;;;;17.32;68.35;100958.00;7388509;19;20022;-78
2022/06/27 02:00:14;;;;;;;4.40;0.30;;;;;;;17.28;68.85;100954.09;7386249;19;20462;-78
2022/06/27 02:02:42;;;;;;;1.98;0.30;;;;;;;17.25;68.84;100951.84;7381757;19;20011;-78
2022/06/27 02:05:09;;;;;;;2.17;0.20;;;;;;;17.23;68.89;100945.88;7385306;19;20010;-79
2022/06/27 02:07:39;;;;;;;7.78;0.30;;;;;;;17.20;69.56;100948.94;7384533;19;20053;-79
2022/06/27 02:10:06;;;;;;;2.60;0.20;;;;;;;17.23;69.19;100955.69;7385205;19;20015;-79
2022/06/27 02:12:34;;;;;;;4.90;0.30;;;;;;;17.23;69.13;100955.69;7386845;19;20018;-78
2022/06/27 02:15:01;;;;;;;3.50;0.28;;;;;;;17.22;69.25;100946.88;7385331;19;20015;-79
2022/06/27 02:17:28;;;;;;;4.30;0.45;;;;;;;17.21;69.04;100957.75;7385248;19;20021;-78
2022/06/27 02:19:55;;;;;;;2.35;0.20;;;;;;;17.22;69.34;100965.50;7382827;19;20017;-78
2022/06/27 02:22:22;;;;;;;4.03;0.40;;;;;;;17.22;69.39;100960.19;7386914;19;20023;-79
2022/06/27 02:24:49;;;;;;;3.17;0.30;;;;;;;17.24;69.46;100958.16;7382757;19;20014;-79
2022/06/27 02:27:17;;;;;;;3.17;0.30;;;;;;;17.23;69.43;100955.69;7384689;19;20021;-79
2022/06/27 02:29:44;;;;;;;4.30;0.30;;;;;;;17.23;69.54;100955.69;7383297;19;20025;-79
2022/06/27 02:32:11;;;;;;;15.38;3.75;;;;;;;17.21;69.17;100961.22;7382441;19;20389;-79
2022/06/27 02:34:39;;;;;;;8.10;0.50;;;;;;;17.21;69.31;100960.41;7382028;19;20879;-78
2022/06/27 02:37:07;;;;;;;7.47;0.38;;;;;;;17.15;69.24;100956.66;7386880;19;20178;-79
2022/06/27 02:39:36;;;;;;;7.38;0.47;;;;;;;17.15;70.39;100964.66;7385039;19;20836;-80
2022/06/27 02:42:07;;;;;;;4.57;0.30;;;;;;;17.15;69.84;100955.84;7384420;19;20014;-79
2022/06/27 02:44:35;;;;;;;3.42;0.20;;;;;;;17.13;69.65;100961.34;7386606;19;20353;-79
2022/06/27 02:47:03;;;;;;;4.47;0.50;;;;;;;17.09;69.47;100963.56;7385523;19;20066;-79
2022/06/27 02:49:30;;;;;;;3.22;0.30;;;;;;;17.08;69.51;100959.25;7382501;19;20134;-78
2022/06/27 02:52:09;;;;;;;7.05;0.30;;;;;;;17.05;69.64;100964.97;7386057;19;20029;-78
2022/06/27 02:54:41;;;;;;;6.55;0.40;;;;;;;17.03;69.66;100966.16;7385887;19;20755;-79
2022/06/27 02:57:18;;;;;;;4.43;0.20;;;;;;;17.04;70.42;100958.00;7385493;19;20019;-78
2022/06/27 02:59:47;;;;;;;2.63;0.20;;;;;;;17.05;69.94;100964.16;7385297;19;20824;-79
2022/06/27 03:02:16;;;;;;;3.85;0.20;;;;;;;17.05;69.33;100964.97;7385176;19;20015;-78
2022/06/27 03:04:43;;;;;;;2.35;0.20;;;;;;;17.03;68.96;100963.50;7380870;19;20114;-78
2022/06/27 03:07:10;;;;;;;2.65;0.20;;;;;;;16.98;69.33;100961.44;7385820;19;20007;-79
2022/06/27 03:09:37;;;;;;;2.85;0.20;;;;;;;16.97;69.28;100967.75;7383807;19;20022;-78
2022/06/27 03:12:05;;;;;;;3.75;0.75;;;;;;;16.96;70.42;100971.44;7383591;19;20070;-78
2022/06/27 03:14:31;;;;;;;7.00;0.20;;;;;;;16.95;69.67;100975.13;7385366;19;20018;-79
2022/06/27 03:16:59;;;;;;;4.97;0.20;;;;;;;16.97;69.33;100974.91;7385967;19;20018;-78
2022/06/27 03:19:26;;;;;;;8.30;0.40;;;;;;;16.94;69.33;100975.28;7383555;19;20475;-78
2022/06/27 03:21:53;;;;;;;3.17;0.25;;;;;;;16.91;69.38;100973.03;7385259;19;20016;-78
2022/06/27 03:24:20;;;;;;;9.48;0.47;;;;;;;16.91;69.41;100981.84;7384712;19;20071;-80
2022/06/27 03:26:47;;;;;;;2.80;0.25;;;;;;;16.85;69.52;100979.94;7383793;19;20014;-79
2022/06/27 03:29:14;;;;;;;4.32;0.47;;;;;;;16.83;70.46;100979.28;7383671;19;20070;-78
2022/06/27 03:31:41;;;;;;;2.65;0.22;;;;;;;16.82;71.16;100982.13;7380504;19;20021;-79
2022/06/27 03:34:08;;;;;;;3.13;0.40;;;;;;;16.79;70.04;100987.81;7380329;19;20034;-80
2022/06/27 03:36:35;;;;;;;5.05;0.30;;;;;;;16.77;70.05;100980.03;7382807;19;20025;-79
2022/06/27 03:39:02;;;;;;;4.03;0.30;;;;;;;16.81;69.72;100988.47;7388364;19;20543;-79
2022/06/27 03:41:29;;;;;;;3.47;0.20;;;;;;;16.79;69.67;100988.66;7391044;19;20016;-78
2022/06/27 03:43:56;;;;;;;2.03;0.10;;;;;;;16.79;69.82;100985.16;7388295;19;20006;-78
2022/06/27 03:46:23;;;;;;;6.85;0.57;;;;;;;16.77;70.36;100989.84;7389499;19;20202;-77
2022/06/27 03:51:35;;;;;;;4.72;0.35;;;;;;;16.70;70.46;100995.09;7390902;19;20028;-78
2022/06/27 03:54:02;;;;;;;7.75;0.30;;;;;;;16.67;70.30;100990.16;7392034;19;20082;-79
2022/06/27 03:56:29;;;;;;;4.93;0.40;;;;;;;16.63;70.85;100981.75;7389108;19;20023;-78
2022/06/27 03:58:56;;;;;;;6.90;0.28;;;;;;;16.57;71.05;100985.13;7390784;19;20056;-78
2022/06/27 04:01:23;;;;;;;11.13;1.05;;;;;;;16.54;72.01;100979.34;7388442;19;20028;-78
2022/06/27 04:03:50;;;;;;;4.13;0.32;;;;;;;16.55;72.02;100992.47;7388340;19;20020;-78
2022/06/27 04:06:17;;;;;;;5.18;0.40;;;;;;;16.56;71.49;100993.25;7388521;19;20569;-78
2022/06/27 04:08:44;;;;;;;6.15;0.30;;;;;;;16.54;71.91;100985.50;7391037;19;20090;-78
2022/06/27 04:11:11;;;;;;;7.40;0.30;;;;;;;16.51;71.91;100991.16;7390725;19;20018;-78
2022/06/27 04:13:37;;;;;;;5.28;0.30;;;;;;;16.51;72.03;100985.84;7392285;19;20037;-78
2022/06/27 04:16:05;;;;;;;4.65;0.20;;;;;;;16.46;72.22;100985.59;7390027;19;20094;-78
2022/06/27 04:18:32;;;;;;;4.80;0.73;;;;;;;16.47;73.03;100989.91;7389728;19;20478;-78
2022/06/27 04:21:00;;;;;;;2.60;0.30;;;;;;;16.50;72.60;100994.03;7387573;19;20404;-79
2022/06/27 04:23:26;;;;;;;4.95;0.70;;;;;;;16.49;72.26;100998.53;7387734;19;20043;-78
2022/06/27 04:25:53;;;;;;;7.70;0.40;;;;;;;16.51;72.25;100998.31;7388610;19;20082;-78
2022/06/27 04:28:21;;;;;;;5.38;0.25;;;;;;;16.51;72.25;100993.00;7390680;19;20018;-78
2022/06/27 04:30:48;;;;;;;4.55;0.20;;;;;;;16.49;72.25;101010.97;7390329;19;20589;-78
2022/06/27 04:33:16;;;;;;;3.40;0.22;;;;;;;16.51;72.48;101009.75;7387400;19;20142;-78
2022/06/27 04:35:46;;;;;;;5.47;0.70;;;;;;;16.50;73.73;101000.19;7387661;19;20017;-78
2022/06/27 04:38:14;;;;;;;3.17;0.30;;;;;;;16.51;73.36;101004.44;7388934;19;20026;-78
2022/06/27 04:40:41;;;;;;;5.45;0.35;;;;;;;16.53;72.90;101010.41;7387806;19;20398;-77
2022/06/27 04:43:08;;;;;;;7.05;0.30;;;;;;;16.54;72.46;101017.38;7386212;19;20019;-79
2022/06/27 04:45:36;;;;;;;3.70;0.25;;;;;;;16.56;72.32;101009.19;7387613;19;20023;-78
2022/06/27 04:48:07;;;;;;;5.47;0.30;;;;;;;16.56;72.25;101011.84;7384533;19;20006;-78
2022/06/27 04:50:36;;;;;;;2.58;0.32;;;;;;;16.58;72.43;101016.03;7383130;19;20031;-78
2022/06/27 04:53:04;;;;;;;2.90;0.40;;;;;;;16.59;72.66;101015.03;7386868;19;20535;-79
2022/06/27 04:55:32;;;;;;;7.03;0.30;;;;;;;16.62;72.37;101008.50;7390771;19;20029;-78
2022/06/27 04:57:59;;;;;;;7.47;0.40;;;;;;;16.64;72.47;101014.44;7389609;19;20058;-78
2022/06/27 05:00:26;;;;;;;2.72;0.20;;;;;;;16.65;72.30;101024.06;7389670;19;20151;-78
2022/06/27 05:02:53;;;;;;;2.10;0.20;;;;;;;16.63;72.12;101023.44;7385748;19;20775;-77
2022/06/27 05:05:20;;;;;;;4.28;0.30;;;;;;;16.63;72.22;101012.81;7387677;19;20462;-79
2022/06/27 05:07:47;;;;;;;7.90;0.30;;;;;;;16.63;72.24;101018.94;7383922;19;20026;-81
2022/06/27 05:10:14;;;;;;;4.35;0.30;;;;;;;16.63;72.75;101012.81;7389925;19;20006;-78
2022/06/27 05:12:41;;;;;;;6.05;0.40;;;;;;;16.63;72.74;101018.13;7388636;19;20080;-78
2022/06/27 05:15:08;;;;;;;5.22;0.30;;;;;;;16.61;72.36;101018.28;7389128;19;20010;-79
2022/06/27 05:17:35;;;;;;;4.30;0.30;;;;;;;16.65;72.44;101008.13;7385539;19;20066;-79
2022/06/27 05:20:04;;;;;;;5.25;0.20;;;;;;;16.64;72.44;101019.78;7389485;19;20014;-79
2022/06/27 05:22:32;;;;;;;6.63;0.40;;;;;;;16.64;72.65;101017.13;7388812;19;20007;-77
2022/06/27 05:24:58;;;;;;;4.78;1.30;;;;;;;16.66;73.19;101029.19;7389964;19;20020;-79
2022/06/27 05:27:26;;;;;;;5.05;0.30;;;;;;;16.70;73.48;101023.50;7389739;19;20007;-79
2022/06/27 05:29:53;;;;;;;4.13;0.40;;;;;;;16.70;72.72;101026.16;7388981;19;20014;-79
2022/06/27 05:32:20;;;;;;;6.28;0.40;;;;;;;16.73;72.84;101023.13;7388719;19;20336;-79
2022/06/27 05:34:47;;;;;;;4.35;0.30;;;;;;;16.75;72.69;101026.44;7384164;19;20018;-78
2022/06/27 05:37:14;;;;;;;6.47;0.40;;;;;;;16.76;72.86;101026.22;7389055;19;20332;-80
2022/06/27 05:39:43;;;;;;;6.15;0.82;;;;;;;16.79;72.88;101027.69;7386505;19;20018;-78
2022/06/27 05:42:10;;;;;;;8.27;0.88;;;;;;;16.77;72.83;101029.69;7389208;19;20031;-78
2022/06/27 05:44:37;;;;;;;7.85;0.60;;;;;;;16.82;73.43;101024.66;7386804;19;20605;-78
2022/06/27 05:47:04;;;;;;;3.83;0.32;;;;;;;16.82;72.87;101024.66;7388415;19;20035;-79
2022/06/27 05:49:31;;;;;;;8.10;0.40;;;;;;;16.85;72.67;101024.28;7386494;19;20750;-78
2022/06/27 05:52:01;;;;;;;3.05;0.30;;;;;;;16.86;72.75;101025.94;7387397;19;20351;-78
2022/06/27 05:54:31;;;;;;;5.70;0.32;;;;;;;16.89;72.86;101023.72;7386112;19;20367;-79
2022/06/27 05:56:58;;;;;;;6.22;0.68;;;;;;;16.93;72.35;101026.81;7390272;19;20045;-80
2022/06/27 05:59:25;;;;;;;4.25;0.47;;;;;;;16.95;72.44;101030.13;7388571;19;20021;-78
2022/06/27 06:01:52;;;;;;;4.90;0.77;;;;;;;17.01;72.42;101024.03;7385486;19;20372;-79
2022/06/27 06:04:20;;;;;;;5.85;0.40;;;;;;;17.09;71.94;101022.06;7384264;19;20345;-79
2022/06/27 06:06:48;;;;;;;5.47;0.30;;;;;;;17.18;70.89;101017.44;7386216;19;20503;-78
2022/06/27 06:09:15;;;;;;;5.03;0.40;;;;;;;17.29;70.82;101024.09;7387784;19;20006;-78
2022/06/27 06:11:43;;;;;;;5.55;0.30;;;;;;;17.29;70.36;101016.09;7385268;19;20037;-79
2022/06/27 06:14:11;;;;;;;8.15;0.40;;;;;;;17.34;70.29;101029.66;7387705;19;20010;-79
2022/06/27 06:16:38;;;;;;;3.67;0.30;;;;;;;17.39;70.97;101024.56;7387048;19;20017;-78
2022/06/27 06:19:05;;;;;;;4.53;0.40;;;;;;;17.40;70.22;101031.53;7384332;19;20018;-80
2022/06/27 06:21:32;;;;;;;5.93;0.40;;;;;;;17.44;70.04;101025.66;7385008;19;20019;-76
2022/06/27 06:23:59;;;;;;;7.05;0.32;;;;;;;17.43;69.75;101026.66;7384140;19;20013;-76
2022/06/27 06:26:27;;;;;;;4.82;0.50;;;;;;;17.43;69.18;101028.50;7384817;19;20565;-79
2022/06/27 06:28:54;;;;;;;5.97;0.45;;;;;;;17.45;69.27;101029.97;7387623;19;20522;-78
2022/06/27 06:31:22;;;;;;;7.65;0.38;;;;;;;17.48;69.03;101029.56;7381190;19;20071;-79
2022/06/27 06:33:54;;;;;;;6.38;0.40;;;;;;;17.53;69.19;101032.47;7383619;19;20027;-79
2022/06/27 06:36:23;;;;;;;5.05;0.30;;;;;;;17.61;69.69;101031.53;7385457;19;20022;-80
2022/06/27 06:38:51;;;;;;;6.13;0.28;;;;;;;17.64;68.35;101028.47;7385231;19;20013;-81
2022/06/27 06:41:18;;;;;;;5.50;0.30;;;;;;;17.63;67.29;101031.34;7385751;19;20014;-78
2022/06/27 06:43:49;;;;;;;8.70;0.70;;;;;;;17.64;67.07;101032.97;7383300;19;20545;-78
2022/06/27 06:46:16;;;;;;;4.13;0.32;;;;;;;17.68;66.63;101040.38;7385150;19;20456;-81
2022/06/27 06:48:43;;;;;;;5.68;0.50;;;;;;;17.71;66.29;101048.00;7386786;19;20139;-80
2022/06/27 06:51:16;;;;;;;4.68;0.40;;;;;;;17.73;66.50;101043.28;7383469;19;20042;-80
2022/06/27 06:53:45;;;;;;;6.57;0.40;;;;;;;17.70;65.31;101042.84;7387615;19;20491;-79
2022/06/27 06:56:12;;;;;;;5.25;0.40;;;;;;;17.69;64.75;101036.72;7386484;19;20365;-80
2022/06/27 06:58:40;;;;;;;10.95;0.90;;;;;;;17.70;64.74;101033.03;7386343;19;20043;-78
2022/06/27 07:01:07;;;;;;;4.80;0.40;;;;;;;17.69;64.61;101047.34;7383749;19;20030;-79
2022/06/27 07:03:34;;;;;;;3.58;0.20;;;;;;;17.70;64.87;101037.53;7382343;19;20025;-80
2022/06/27 07:06:03;;;;;;;5.05;0.30;;;;;;;17.74;64.19;101036.94;7380918;19;20071;-78
2022/06/27 07:08:34;;;;;;;5.53;0.35;;;;;;;17.78;65.84;101035.53;7385048;19;20014;-77
2022/06/27 07:11:05;;;;;;;2.70;0.30;;;;;;;17.81;63.83;101035.16;7385584;19;20017;-78
2022/06/27 07:13:32;;;;;;;5.35;0.30;;;;;;;17.82;62.63;101028.00;7385207;19;20069;-79
2022/06/27 07:15:59;;;;;;;3.85;0.22;;;;;;;17.89;62.69;101037.66;7391269;19;20014;-79
2022/06/27 07:18:27;;;;;;;6.00;0.28;;;;;;;17.98;64.14;101032.22;7389575;19;20363;-78
2022/06/27 07:20:54;;;;;;;7.00;0.35;;;;;;;18.02;63.52;101031.63;7391508;19;20398;-78
2022/06/27 07:23:21;;;;;;;3.25;1.00;;;;;;;18.10;63.61;101035.94;7392300;19;20043;-78
2022/06/27 07:25:48;;;;;;;2.10;0.38;;;;;;;18.14;62.62;101030.03;7391296;19;20044;-79
2022/06/27 07:28:15;;;;;;;10.18;1.17;;;;;;;18.19;62.63;101027.59;7391269;19;20787;-77
2022/06/27 07:30:43;;;;;;;6.60;0.68;;;;;;;18.25;61.39;101032.13;7393537;19;20576;-76
2022/06/27 07:33:11;;;;;;;2.60;0.20;;;;;;;18.26;59.83;101031.13;7389925;19;20038;-77
2022/06/27 07:35:39;;;;;;;3.60;0.20;;;;;;;18.31;59.05;101030.53;7391392;19;20010;-78
2022/06/27 07:38:06;;;;;;;3.70;0.20;;;;;;;18.40;60.49;101037.31;7392482;19;20117;-78
2022/06/27 07:40:34;;;;;;;3.25;0.20;;;;;;;18.49;58.28;101043.31;7392682;19;20006;-79
2022/06/27 07:43:02;;;;;;;6.38;0.30;;;;;;;18.68;57.86;101039.94;7367010;19;20011;-77
2022/06/27 07:45:29;;;;;;;5.60;0.30;;;;;;;19.11;56.63;101040.41;7362137;19;20805;-78
2022/06/27 07:47:56;;;;;;;3.67;0.40;;;;;;;19.68;53.78;101034.50;7386403;19;20788;-78
2022/06/27 07:50:36;;;;;;;2.92;0.20;;;;;;;19.96;53.20;101039.63;7390418;19;20040;-78
2022/06/27 07:53:12;;;;;;;2.47;0.20;;;;;;;20.00;52.11;101035.50;7392627;19;20014;-78
2022/06/27 07:55:52;;;;;;;3.95;0.30;;;;;;;19.95;52.77;101044.13;7390671;19;20081;-77
2022/06/27 07:58:26;;;;;;;1.85;0.20;;;;;;;19.76;53.17;101033.50;7391503;19;20014;-78
2022/06/27 08:00:53;;;;;;;4.60;0.30;;;;;;;19.67;53.92;101029.38;7390915;19;20014;-78
2022/06/27 08:06:20;;;;;;;3.00;0.28;;;;;;;19.53;53.98;101036.56;7387483;19;20022;-78
2022/06/27 08:08:50;;;;;;;3.10;0.65;;;;;;;19.50;54.36;101037.81;7390148;19;20401;-78
2022/06/27 08:11:20;;;;;;;5.05;0.50;;;;;;;19.48;53.91;101033.69;7389779;19;20458;-77
2022/06/27 08:13:49;;;;;;;4.05;0.35;;;;;;;19.46;53.72;101043.75;7391474;19;20069;-78
2022/06/27 08:16:18;;;;;;;3.65;0.32;;;;;;;19.49;55.92;101044.19;7388981;19;20022;-78
2022/06/27 08:18:47;;;;;;;4.50;0.20;;;;;;;19.51;54.53;101031.44;7386831;19;20014;-78
2022/06/27 08:21:20;;;;;;;8.50;0.40;;;;;;;19.50;52.94;101039.66;7388433;19;20015;-78
2022/06/27 08:23:56;;;;;;;3.08;0.28;;;;;;;19.53;51.82;101044.59;7388608;19;20107;-76
2022/06/27 08:26:24;;;;;;;2.47;0.20;;;;;;;19.55;52.31;101034.53;7383905;19;20456;-78
2022/06/27 08:28:53;;;;;;;3.17;0.20;;;;;;;19.57;52.78;101045.81;7390714;19;20018;-79
2022/06/27 08:31:20;;;;;;;5.35;0.20;;;;;;;19.66;55.70;101049.91;7388058;19;20086;-79
2022/06/27 08:33:52;;;;;;;3.80;0.20;;;;;;;19.76;53.00;101047.63;7388944;19;20010;-79
2022/06/27 08:36:23;;;;;;;2.78;0.20;;;;;;;19.84;52.02;101043.94;7390390;19;20082;-79
2022/06/27 08:38:50;;;;;;;4.63;0.45;;;;;;;19.86;52.23;101047.25;7389366;19;20135;-79
2022/06/27 08:41:22;;;;;;;6.00;0.47;;;;;;;19.90;51.27;101046.59;7387906;19;20041;-79
2022/06/27 08:44:00;;;;;;;4.90;0.40;;;;;;;19.88;51.95;101056.66;7389547;19;20022;-79
2022/06/27 08:46:31;;;;;;;4.57;0.20;;;;;;;19.84;51.48;101060.78;7383850;19;20059;-79
2022/06/27 08:48:58;;;;;;;3.38;0.22;;;;;;;19.80;52.16;101056.91;7390004;19;20040;-79
2022/06/27 08:51:26;;;;;;;5.45;0.30;;;;;;;19.78;51.77;101056.28;7388817;19;20034;-79
2022/06/27 08:53:54;;;;;;;1.80;0.10;;;;;;;19.70;51.80;101051.16;7390509;19;20471;-79
2022/06/27 08:56:22;;;;;;;2.17;0.43;;;;;;;19.66;51.79;101049.91;7390623;19;20567;-79
2022/06/27 08:58:51;;;;;;;4.28;0.50;;;;;;;19.69;52.37;101054.84;7390491;19;20373;-78
2022/06/27 09:01:22;;;;;;;5.40;0.68;;;;;;;19.71;53.47;101051.97;7389389;19;20575;-79
2022/06/27 09:04:00;;;;;;;3.08;0.43;;;;;;;19.76;53.36;101052.97;7389305;19;20044;-79
2022/06/27 09:06:32;;;;;;;4.13;0.30;;;;;;;19.87;53.68;101051.53;7387202;19;20350;-78
2022/06/27 09:09:08;;;;;;;4.20;0.20;;;;;;;19.95;52.89;101056.66;7388636;19;20014;-80
2022/06/27 09:11:41;;;;;;;5.70;0.88;;;;;;;19.98;52.70;101053.56;7387356;19;20010;-77
2022/06/27 09:14:39;;;;;;;5.18;0.50;;;;;;;20.02;53.58;101052.13;7389639;19;20102;-78
2022/06/27 09:17:13;;;;;;;5.10;0.30;;;;;;;20.04;54.53;101055.41;7389169;19;20176;-79
2022/06/27 09:19:45;;;;;;;4.35;0.13;;;;;;;20.03;52.07;101059.94;7387092;19;20033;-80
2022/06/27 09:22:15;;;;;;;2.72;0.20;;;;;;;19.97;52.80;101058.09;7389388;19;20025;-79
2022/06/27 09:25:04;;;;;;;4.50;0.75;;;;;;;19.98;51.20;101061.56;7387089;19;20860;-79
2022/06/27 09:27:50;;;;;;;3.10;0.17;;;;;;;19.96;52.58;101061.78;7389781;19;20551;-79
2022/06/27 09:30:36;;;;;;;2.58;0.20;;;;;;;19.92;52.79;101063.22;7386664;19;20082;-79
2022/06/27 09:33:09;;;;;;;3.10;0.10;;;;;;;19.86;53.16;101061.38;7387057;19;20014;-80
2022/06/27 09:35:38;;;;;;;4.18;0.40;;;;;;;19.86;53.59;101069.41;7387562;19;20022;-78
2022/06/27 09:38:07;;;;;;;12.85;6.70;;;;;;;19.89;53.05;101071.69;7385622;19;20014;-79
2022/06/27 09:40:36;;;;;;;6.25;0.60;;;;;;;19.91;53.05;101064.25;7388170;19;20538;-78
2022/06/27 09:43:06;;;;;;;3.47;0.30;;;;;;;20.02;52.80;101068.97;7387908;19;20551;-79
2022/06/27 09:45:33;;;;;;;3.17;0.30;;;;;;;20.16;53.39;101061.75;7383192;19;20011;-79
2022/06/27 09:48:06;;;;;;;3.03;0.10;;;;;;;20.26;53.58;101067.50;7382437;19;20054;-79
2022/06/27 09:50:37;;;;;;;2.80;0.10;;;;;;;20.33;52.81;101067.47;7386082;19;20340;-79
2022/06/27 09:53:05;;;;;;;3.25;0.20;;;;;;;20.43;55.83;101066.00;7388224;19;20010;-79
2022/06/27 09:55:33;;;;;;;2.22;0.40;;;;;;;20.51;55.87;101067.63;7387260;19;20018;-78
2022/06/27 09:58:03;;;;;;;5.65;0.30;;;;;;;20.48;52.96;101065.38;7377310;19;20767;-79
2022/06/27 10:00:32;;;;;;;2.20;0.63;;;;;;;20.45;53.48;101073.81;7386979;19;20471;-79
2022/06/27 10:02:59;;;;;;;5.80;0.30;;;;;;;20.41;52.69;101073.44;7385492;19;20021;-78
2022/06/27 10:05:27;;;;;;;3.70;0.17;;;;;;;20.38;52.86;101067.66;7383174;19;20406;-78
2022/06/27 10:07:57;;;;;;;1.27;0.10;;;;;;;20.29;52.64;101074.25;7386718;19;20447;-78
2022/06/27 10:10:27;;;;;;;3.08;0.20;;;;;;;20.20;52.95;101076.34;7385696;19;20014;-78
2022/06/27 10:13:04;;;;;;;4.25;0.20;;;;;;;20.14;53.74;101073.69;7386419;19;20062;-79
2022/06/27 10:15:33;;;;;;;3.80;0.20;;;;;;;20.10;54.48;101064.44;7387073;19;20479;-78
2022/06/27 10:18:02;;;;;;;2.30;0.25;;;;;;;20.14;55.28;101077.16;7382853;19;20475;-78
2022/06/27 10:20:36;;;;;;;3.25;0.20;;;;;;;20.24;54.43;101066.03;7387518;19;20039;-78
2022/06/27 10:23:09;;;;;;;3.17;0.15;;;;;;;20.30;54.95;101074.06;7386919;19;20021;-78
2022/06/27 10:25:37;;;;;;;3.83;0.30;;;;;;;20.38;54.83;101079.19;7387049;19;20062;-77
2022/06/27 10:28:11;;;;;;;3.80;0.20;;;;;;;20.41;53.86;101067.25;7385579;19;20015;-77
2022/06/27 10:30:44;;;;;;;5.65;0.73;;;;;;;20.38;54.88;101070.34;7386986;19;20018;-78
2022/06/27 10:33:25;;;;;;;3.78;0.38;;;;;;;20.42;54.83;101071.56;7385149;19;20113;-78
2022/06/27 10:35:59;;;;;;;3.07;0.30;;;;;;;20.35;53.69;101082.28;7380876;19;20018;-77
2022/06/27 10:38:39;;;;;;;2.30;0.10;;;;;;;20.28;54.41;101083.28;7384027;19;20018;-77
2022/06/27 10:41:36;;;;;;;2.20;0.10;;;;;;;20.13;54.91;101078.19;7385597;19;20037;-78
2022/06/27 10:44:06;;;;;;;2.00;0.10;;;;;;;20.03;56.92;101097.34;7384748;19;20017;-78
2022/06/27 10:46:41;;;;;;;2.72;0.30;;;;;;;19.93;58.89;101099.59;7385587;19;20025;-78
2022/06/27 10:49:18;;;;;;;1.65;0.17;;;;;;;19.80;61.30;101102.31;7382283;19;20335;-79
2022/06/27 10:51:46;;;;;;;2.53;0.20;;;;;;;19.64;62.28;101110.72;7384932;19;20023;-78
2022/06/27 10:54:13;;;;;;;3.55;0.10;;;;;;;19.61;65.18;101108.44;7385618;19;20017;-79
2022/06/27 10:56:45;;;;;;;2.22;0.30;;;;;;;19.49;65.41;101104.75;7385992;19;20021;-79
2022/06/27 10:59:15;;;;;;;2.50;0.25;;;;;;;19.45;66.52;101111.53;7384808;19;20017;-79
2022/06/27 11:01:57;;;;;;;3.08;0.10;;;;;;;19.36;66.59;101115.38;7386392;19;20102;-78
2022/06/27 11:04:25;;;;;;;2.08;0.13;;;;;;;19.16;68.00;101116.16;7381746;19;20018;-77
2022/06/27 11:06:59;;;;;;;1.30;0.20;;;;;;;18.96;68.91;101117.94;7384007;19;20062;-77
2022/06/27 11:09:46;;;;;;;1.33;0.40;;;;;;;18.90;71.21;101120.59;7385592;19;20011;-78
2022/06/27 11:12:15;;;;;;;1.70;0.30;;;;;;;18.82;72.25;101110.94;7386903;19;20465;-78
2022/06/27 11:14:53;;;;;;;3.08;0.10;;;;;;;18.80;72.19;101113.78;7383940;19;20030;-78
2022/06/27 11:17:27;;;;;;;1.70;0.03;;;;;;;18.70;72.01;101116.00;7382712;19;20025;-79
2022/06/27 11:20:14;;;;;;;1.63;0.75;;;;;;;18.68;74.10;101117.25;7382527;19;20094;-80
2022/06/27 11:23:03;;;;;;;1.75;0.32;;;;;;;18.77;75.12;101113.38;7384079;19;20019;-78
2022/06/27 11:25:31;;;;;;;2.13;0.17;;;;;;;18.79;74.35;101111.34;7383313;19;20056;-78
2022/06/27 11:33:40;;;;;;;2.38;0.10;;;;;;;18.87;73.34;101116.50;7382317;19;20026;-79
2022/06/27 11:36:11;;;;;;;2.05;0.10;;;;;;;18.80;72.77;101119.13;7381533;19;20006;-79
2022/06/27 11:38:43;;;;;;;1.25;0.17;;;;;;;18.77;73.76;101114.19;7385488;19;20014;-79
2022/06/27 11:41:12;;;;;;;1.20;0.10;;;;;;;18.79;73.74;101111.34;7386040;19;20035;-79
2022/06/27 11:43:56;;;;;;;2.58;0.22;;;;;;;18.79;73.23;101116.69;7385427;19;20041;-78
2022/06/27 11:46:31;;;;;;;2.47;0.10;;;;;;;18.77;73.23;101116.88;7385090;19;20086;-79